Time;durP1;ratioP1;P1;durP2;ratioP2;P2;SDS_P1;SDS_P2;PMS_P1;PMS_P2;Temp;Humidity;BMP_temperature;BMP_pressure;BME280_temperature;BME280_humidity;BME280_pressure;Samples;Min_cycle;Max_cycle;Signal;HPM_P1;HPM_P2
2022/05/22 00:02:44;;;;;;;1.80;1.00;;;20.60;54.90;;;;;;10089342;28;20054;-65
2022/05/22 00:07:35;;;;;;;2.72;1.23;;;20.70;54.70;;;;;;10093749;28;20545;-64
2022/05/22 00:12:26;;;;;;;3.00;1.40;;;20.60;55.00;;;;;;10094041;28;20029;-64
2022/05/22 00:17:16;;;;;;;4.13;1.20;;;20.70;55.00;;;;;;10096333;28;20033;-64
2022/05/22 00:22:07;;;;;;;1.65;1.35;;;20.60;55.40;;;;;;10088278;28;20021;-68
2022/05/22 00:27:00;;;;;;;4.03;1.58;;;20.50;55.70;;;;;;10124374;28;20515;-65
2022/05/22 00:31:51;;;;;;;3.45;1.45;;;20.40;56.10;;;;;;10092709;28;20041;-65
2022/05/22 00:36:42;;;;;;;2.47;1.35;;;20.40;56.50;;;;;;10092034;28;20024;-64
2022/05/22 00:41:34;;;;;;;2.97;1.50;;;20.30;56.60;;;;;;10092331;28;20032;-65
2022/05/22 00:46:25;;;;;;;2.05;1.40;;;20.10;57.80;;;;;;10091472;28;20265;-65
2022/05/22 00:51:24;;;;;;;1.88;1.55;;;20.00;57.60;;;;;;10124234;28;20098;-65
2022/05/22 00:56:20;;;;;;;2.83;1.70;;;20.00;57.80;;;;;;10095580;28;20023;-66
2022/05/22 01:01:11;;;;;;;2.10;1.25;;;19.90;58.20;;;;;;10091931;28;20035;-65
2022/05/22 01:06:04;;;;;;;1.95;1.25;;;19.90;58.10;;;;;;10091327;28;20420;-65
2022/05/22 01:11:03;;;;;;;2.40;1.27;;;19.80;58.40;;;;;;10097277;28;20434;-66
2022/05/22 01:15:53;;;;;;;2.42;1.30;;;19.80;58.80;;;;;;10103764;28;20025;-64
2022/05/22 01:20:51;;;;;;;1.65;1.35;;;19.80;58.80;;;;;;10095445;28;20037;-65
2022/05/22 01:25:41;;;;;;;1.52;1.20;;;19.80;58.90;;;;;;10099769;28;20489;-64
2022/05/22 01:30:32;;;;;;;1.95;1.08;;;19.80;59.00;;;;;;10100138;28;20582;-64
2022/05/22 01:35:26;;;;;;;1.67;1.13;;;19.80;59.30;;;;;;10099152;28;20049;-65
2022/05/22 01:40:18;;;;;;;4.82;1.15;;;19.70;59.60;;;;;;10099301;28;20025;-64
2022/05/22 01:45:11;;;;;;;2.40;1.38;;;19.80;59.40;;;;;;10099557;28;20028;-65
2022/05/22 01:50:03;;;;;;;1.40;1.08;;;19.70;59.70;;;;;;10099312;28;20398;-65
2022/05/22 01:54:53;;;;;;;2.03;1.27;;;19.70;59.70;;;;;;10105752;28;20022;-65
2022/05/22 01:59:44;;;;;;;2.05;1.23;;;19.70;60.10;;;;;;10098155;28;20036;-64
2022/05/22 02:04:35;;;;;;;2.33;1.02;;;19.60;60.20;;;;;;10097691;28;20033;-65
2022/05/22 02:09:26;;;;;;;3.75;1.20;;;19.50;60.50;;;;;;10096301;28;20045;-64
2022/05/22 02:14:17;;;;;;;2.28;1.27;;;19.60;60.60;;;;;;10097717;28;20032;-65
2022/05/22 02:19:07;;;;;;;1.42;1.20;;;19.50;60.70;;;;;;10095907;28;20589;-63
2022/05/22 02:23:58;;;;;;;1.63;1.35;;;19.40;60.90;;;;;;10096396;28;20033;-64
2022/05/22 02:28:49;;;;;;;3.10;1.80;;;19.30;61.50;;;;;;10097245;28;20048;-63
2022/05/22 02:33:40;;;;;;;2.33;1.33;;;19.20;61.50;;;;;;10096782;28;20048;-64
2022/05/22 02:38:31;;;;;;;3.17;1.27;;;19.10;61.90;;;;;;10097449;28;20037;-64
2022/05/22 02:43:21;;;;;;;4.00;1.48;;;19.10;62.50;;;;;;10095860;28;20082;-64
2022/05/22 02:48:12;;;;;;;1.55;1.30;;;18.80;63.60;;;;;;10096188;28;20028;-64
2022/05/22 02:53:03;;;;;;;1.88;1.50;;;18.70;63.80;;;;;;10099044;28;20118;-65
2022/05/22 02:57:54;;;;;;;3.17;1.67;;;18.60;63.80;;;;;;10095769;28;20025;-64
2022/05/22 03:02:44;;;;;;;2.38;1.55;;;18.50;64.10;;;;;;10095922;28;20481;-64
2022/05/22 03:07:36;;;;;;;2.50;1.50;;;18.50;64.40;;;;;;10093717;28;20075;-64
2022/05/22 03:12:30;;;;;;;1.52;1.35;;;18.50;64.50;;;;;;10094825;28;20483;-64
2022/05/22 03:17:22;;;;;;;1.80;1.30;;;18.50;64.70;;;;;;10097798;28;20127;-64
2022/05/22 03:22:13;;;;;;;4.63;2.30;;;18.40;65.00;;;;;;10090061;28;20078;-65
2022/05/22 03:27:06;;;;;;;3.60;1.38;;;18.60;64.90;;;;;;10095200;28;20041;-64
2022/05/22 03:31:57;;;;;;;2.30;1.42;;;18.50;65.20;;;;;;10094875;28;20125;-64
2022/05/22 03:36:48;;;;;;;3.00;1.33;;;18.70;64.90;;;;;;10094857;28;20472;-65
2022/05/22 03:41:39;;;;;;;2.67;1.63;;;18.80;65.00;;;;;;10094994;28;20051;-64
2022/05/22 03:46:29;;;;;;;1.38;1.27;;;18.80;65.10;;;;;;10095573;28;20032;-64
2022/05/22 03:51:20;;;;;;;3.00;1.40;;;18.60;65.50;;;;;;10096646;28;20037;-65
2022/05/22 03:56:16;;;;;;;4.38;1.15;;;18.60;65.80;;;;;;10094397;28;20049;-64
2022/05/22 04:01:07;;;;;;;3.60;1.48;;;18.70;66.00;;;;;;10094227;28;20043;-64
2022/05/22 04:05:58;;;;;;;2.33;1.52;;;18.70;65.90;;;;;;10093530;28;20407;-64
2022/05/22 04:10:48;;;;;;;1.83;1.33;;;18.80;66.20;;;;;;10094014;28;20470;-64
2022/05/22 04:15:39;;;;;;;2.80;1.35;;;18.60;66.90;;;;;;10095960;28;20024;-64
2022/05/22 04:20:31;;;;;;;2.15;1.38;;;18.50;67.10;;;;;;10088179;28;20036;-64
2022/05/22 04:25:22;;;;;;;3.38;1.50;;;18.50;67.30;;;;;;10092532;28;20025;-65
2022/05/22 04:30:17;;;;;;;2.58;1.42;;;18.50;67.80;;;;;;10092181;28;20040;-64
2022/05/22 04:35:08;;;;;;;1.83;1.50;;;18.50;67.90;;;;;;10091904;28;20120;-64
2022/05/22 04:39:59;;;;;;;5.10;1.65;;;18.40;68.20;;;;;;10091296;28;20171;-64
2022/05/22 04:44:49;;;;;;;2.10;1.50;;;18.50;68.20;;;;;;10090840;28;20021;-64
2022/05/22 04:49:40;;;;;;;2.85;1.67;;;18.60;68.30;;;;;;10091777;28;20218;-64
2022/05/22 04:54:31;;;;;;;2.75;1.60;;;18.60;68.60;;;;;;10094453;28;20017;-65
2022/05/22 04:59:21;;;;;;;1.83;1.50;;;18.60;68.70;;;;;;10091775;28;20473;-65
2022/05/22 05:04:13;;;;;;;3.22;1.80;;;18.70;68.80;;;;;;10084521;28;20056;-64
2022/05/22 05:09:04;;;;;;;2.45;1.70;;;18.80;69.00;;;;;;10087195;28;20032;-65
2022/05/22 05:13:54;;;;;;;2.00;1.70;;;18.80;69.20;;;;;;10091850;28;20025;-64
2022/05/22 05:18:45;;;;;;;4.22;2.30;;;18.90;69.10;;;;;;10093430;28;20183;-64
2022/05/22 05:23:37;;;;;;;2.95;1.98;;;18.90;69.30;;;;;;10091766;28;20021;-65
2022/05/22 05:28:28;;;;;;;2.40;2.03;;;18.80;69.50;;;;;;10091298;28;20048;-65
2022/05/22 05:33:19;;;;;;;3.03;1.83;;;18.90;69.30;;;;;;10091745;28;20098;-65
2022/05/22 05:38:10;;;;;;;1.85;1.33;;;18.80;69.60;;;;;;10091889;28;20567;-65
2022/05/22 05:43:02;;;;;;;2.88;2.33;;;18.90;69.60;;;;;;10092135;28;20025;-65
2022/05/22 05:47:53;;;;;;;3.75;1.88;;;19.00;69.50;;;;;;10091808;28;20526;-65
2022/05/22 05:52:44;;;;;;;2.17;1.40;;;19.00;69.50;;;;;;10093980;28;20178;-65
2022/05/22 05:57:34;;;;;;;3.60;1.70;;;19.10;69.40;;;;;;10096362;28;20025;-66
2022/05/22 06:02:25;;;;;;;3.95;1.70;;;19.20;69.30;;;;;;10094605;28;20025;-64
2022/05/22 06:07:16;;;;;;;2.92;1.40;;;19.20;69.20;;;;;;10094936;28;20055;-64
2022/05/22 06:12:07;;;;;;;2.67;1.80;;;19.20;69.20;;;;;;10098203;28;20033;-64
2022/05/22 06:16:58;;;;;;;4.05;2.03;;;19.30;69.00;;;;;;10100140;28;20032;-66
2022/05/22 06:21:48;;;;;;;2.35;1.85;;;19.40;69.00;;;;;;10095119;28;20364;-64
2022/05/22 06:26:39;;;;;;;2.33;1.20;;;19.60;69.00;;;;;;10097988;28;20457;-63
2022/05/22 06:31:33;;;;;;;1.55;1.35;;;19.60;68.90;;;;;;10096712;28;20428;-64
2022/05/22 06:36:24;;;;;;;1.38;1.20;;;19.70;68.60;;;;;;10097025;28;20036;-65
2022/05/22 06:41:14;;;;;;;3.10;1.83;;;19.80;68.60;;;;;;10096612;28;20027;-65
2022/05/22 06:46:05;;;;;;;4.75;1.45;;;19.80;68.20;;;;;;10096092;28;20109;-64
2022/05/22 06:50:56;;;;;;;1.70;1.20;;;19.90;68.10;;;;;;10096612;28;20463;-64
2022/05/22 06:55:48;;;;;;;2.53;1.40;;;19.90;68.00;;;;;;10099759;28;20107;-64
2022/05/22 07:00:39;;;;;;;2.75;1.40;;;20.00;67.80;;;;;;10096246;28;20033;-63
2022/05/22 07:05:29;;;;;;;5.82;1.38;;;20.00;68.00;;;;;;10095641;28;20491;-64
2022/05/22 07:11:38;;;;;;;3.70;1.20;;;20.20;67.60;;;;;;10097238;28;20032;-65
2022/05/22 07:15:31;;;;;;;4.03;1.40;;;20.20;67.90;;;;;;10098530;28;20590;-65
2022/05/22 07:20:22;;;;;;;1.77;0.93;;;20.40;67.30;;;;;;10091255;28;20131;-65
2022/05/22 07:25:12;;;;;;;1.67;1.40;;;20.50;66.90;;;;;;10094889;28;20269;-64
2022/05/22 07:30:04;;;;;;;2.60;1.08;;;20.50;66.90;;;;;;10095273;28;20482;-65
2022/05/22 07:34:54;;;;;;;2.20;1.25;;;20.60;66.70;;;;;;10094656;28;20017;-65
2022/05/22 07:39:45;;;;;;;1.35;0.90;;;20.70;66.60;;;;;;10094937;28;20021;-64
2022/05/22 07:44:37;;;;;;;3.28;1.92;;;20.90;66.40;;;;;;10092732;28;20410;-66
2022/05/22 07:54:40;;;;;;;3.58;1.40;;;21.30;65.60;;;;;;10090213;28;20186;-64
2022/05/22 07:59:36;;;;;;;3.25;1.50;;;21.30;65.60;;;;;;10094180;28;20511;-64
2022/05/22 08:04:26;;;;;;;2.83;1.20;;;21.40;65.60;;;;;;10087830;28;20081;-64
2022/05/22 08:09:17;;;;;;;1.90;1.25;;;21.40;65.20;;;;;;10092609;28;20041;-64
2022/05/22 08:14:08;;;;;;;6.90;4.53;;;21.60;65.30;;;;;;10093462;28;20025;-64
2022/05/22 08:18:58;;;;;;;2.75;1.60;;;21.70;65.20;;;;;;10091374;28;20036;-65
2022/05/22 08:23:49;;;;;;;2.90;1.08;;;21.60;65.40;;;;;;10093547;28;20021;-64
2022/05/22 08:28:40;;;;;;;2.80;1.65;;;21.60;65.30;;;;;;10093322;28;20091;-66
2022/05/22 08:33:30;;;;;;;1.38;0.90;;;21.70;65.00;;;;;;10092298;28;20040;-66
2022/05/22 08:38:21;;;;;;;3.15;1.50;;;21.90;64.30;;;;;;10092965;28;20478;-64
2022/05/22 08:43:16;;;;;;;2.45;1.30;;;22.20;63.60;;;;;;10092385;28;20025;-65
2022/05/22 08:48:10;;;;;;;;;;;22.30;63.00;;;;;;10124862;28;20214;-63
2022/05/22 08:53:29;;;;;;;2.53;1.08;;;22.40;61.80;;;;;;10095103;28;19916;-64
2022/05/22 09:03:59;;;;;;;1.70;1.30;;;22.50;62.00;;;;;;10085327;28;20387;-64
2022/05/22 09:08:50;;;;;;;3.05;1.60;;;22.60;61.00;;;;;;10091479;28;20063;-64
2022/05/22 09:13:53;;;;;;;2.55;1.05;;;22.90;60.60;;;;;;10091993;28;20037;-65
2022/05/22 09:18:55;;;;;;;1.42;1.25;;;22.90;58.70;;;;;;10089075;28;20021;-64
2022/05/22 09:23:52;;;;;;;1.05;0.65;;;22.80;58.80;;;;;;10086895;28;20732;-65
2022/05/22 09:28:46;;;;;;;1.20;0.80;;;22.90;58.80;;;;;;10087367;28;20434;-65
2022/05/22 09:34:07;;;;;;;1.97;0.83;;;23.10;59.00;;;;;;10099646;28;20029;-65
2022/05/22 09:39:25;;;;;;;2.60;0.98;;;23.10;57.70;;;;;;10086026;28;20056;-65
2022/05/22 09:44:35;;;;;;;3.65;1.73;;;23.50;58.30;;;;;;10090146;28;20061;-64
2022/05/22 09:49:54;;;;;;;1.10;0.90;;;23.80;57.40;;;;;;10098847;28;20060;-65
2022/05/22 09:54:57;;;;;;;0.70;0.60;;;23.60;57.10;;;;;;10105231;28;20048;-66
2022/05/22 10:00:11;;;;;;;2.30;0.70;;;23.80;57.10;;;;;;10098473;28;20025;-65
2022/05/22 10:05:30;;;;;;;3.40;1.92;;;23.70;56.60;;;;;;10084195;28;20126;-64
2022/05/22 10:10:35;;;;;;;1.38;1.00;;;24.00;56.50;;;;;;10098466;28;20036;-65
2022/05/22 10:15:40;;;;;;;1.67;0.85;;;24.00;56.40;;;;;;10100461;28;20021;-66
2022/05/22 10:20:31;;;;;;;2.53;1.10;;;24.00;56.40;;;;;;10093250;28;20108;-65
2022/05/22 10:25:36;;;;;;;2.45;1.00;;;24.10;56.30;;;;;;10097414;28;20560;-67
2022/05/22 10:30:33;;;;;;;1.27;1.08;;;24.00;56.10;;;;;;10092338;28;20603;-65
2022/05/22 10:35:26;;;;;;;3.60;1.70;;;24.20;56.10;;;;;;10099711;28;20021;-66
2022/05/22 10:40:21;;;;;;;3.65;1.00;;;24.50;55.80;;;;;;10097991;28;20060;-66
2022/05/22 10:45:21;;;;;;;1.38;1.10;;;24.60;55.40;;;;;;10096951;28;20112;-64
2022/05/22 10:50:27;;;;;;;4.50;1.80;;;24.50;55.60;;;;;;10096974;28;20086;-66
2022/05/22 10:55:44;;;;;;;3.85;1.40;;;24.60;55.50;;;;;;10095296;28;20453;-66
2022/05/22 11:00:35;;;;;;;2.05;1.30;;;24.70;55.10;;;;;;10096372;28;20275;-65
2022/05/22 11:05:28;;;;;;;3.25;2.00;;;24.60;55.30;;;;;;10095777;28;20191;-65
2022/05/22 11:10:35;;;;;;;3.25;1.10;;;24.70;54.80;;;;;;10096085;28;20040;-65
2022/05/22 11:15:28;;;;;;;2.13;0.90;;;24.60;54.20;;;;;;10097997;28;20013;-65
2022/05/22 11:20:24;;;;;;;2.80;1.05;;;24.80;54.60;;;;;;10094005;28;20040;-65
2022/05/22 11:25:21;;;;;;;2.30;1.42;;;25.10;54.30;;;;;;10095028;28;20206;-66
2022/05/22 11:30:43;;;;;;;3.65;1.13;;;25.40;53.80;;;;;;10095167;28;20036;-67
2022/05/22 11:35:44;;;;;;;1.92;1.08;;;25.20;53.20;;;;;;10092995;28;20653;-66
2022/05/22 11:40:47;;;;;;;2.75;1.60;;;25.30;53.20;;;;;;10095175;28;20100;-65
2022/05/22 11:46:01;;;;;;;3.90;1.83;;;25.50;52.80;;;;;;10094555;28;20021;-66
2022/05/22 11:51:04;;;;;;;2.42;1.20;;;25.60;52.00;;;;;;10101555;28;20047;-66
2022/05/22 11:56:07;;;;;;;1.65;1.15;;;25.90;52.00;;;;;;10090034;28;20036;-65
2022/05/22 12:01:01;;;;;;;3.25;1.55;;;25.80;51.50;;;;;;10094481;28;20033;-65
2022/05/22 12:05:57;;;;;;;2.67;1.70;;;26.00;51.50;;;;;;10094372;28;20025;-63
2022/05/22 12:11:14;;;;;;;1.40;0.88;;;26.40;50.90;;;;;;10094216;28;20295;-66
2022/05/22 12:16:26;;;;;;;1.17;1.00;;;27.10;49.50;;;;;;10092329;28;20118;-68
2022/05/22 12:21:23;;;;;;;1.63;1.00;;;27.20;50.00;;;;;;10083748;28;20079;-66
2022/05/22 12:26:14;;;;;;;2.03;1.13;;;27.10;49.80;;;;;;10093353;28;20049;-64
2022/05/22 12:31:27;;;;;;;1.67;0.90;;;26.90;49.00;;;;;;10092705;28;20037;-66
2022/05/22 12:36:28;;;;;;;1.05;0.77;;;27.10;48.40;;;;;;10092028;28;20552;-67
2022/05/22 12:41:56;;;;;;;1.63;0.98;;;26.80;47.90;;;;;;10092142;28;20143;-65
2022/05/22 12:46:49;;;;;;;1.67;0.95;;;27.20;46.50;;;;;;10093916;28;20033;-65
2022/05/22 12:51:42;;;;;;;1.30;0.80;;;27.70;46.40;;;;;;10093586;28;20024;-65
2022/05/22 12:56:32;;;;;;;0.98;0.85;;;28.10;45.80;;;;;;10093845;28;20087;-67
2022/05/22 13:01:45;;;;;;;1.65;1.10;;;28.00;45.50;;;;;;10093003;28;20524;-67
2022/05/22 13:06:52;;;;;;;2.00;0.77;;;27.70;45.10;;;;;;10081747;28;20025;-65
2022/05/22 13:11:50;;;;;;;1.35;0.90;;;27.80;44.40;;;;;;10092450;28;20068;-65
2022/05/22 13:16:47;;;;;;;1.75;0.88;;;28.90;43.80;;;;;;10093401;28;20429;-66
2022/05/22 13:21:39;;;;;;;1.38;0.88;;;28.70;42.80;;;;;;10092283;28;20395;-65
2022/05/22 13:26:32;;;;;;;1.73;0.80;;;28.10;43.00;;;;;;10093709;28;20124;-66
2022/05/22 13:31:49;;;;;;;1.33;1.02;;;28.20;42.90;;;;;;10092514;28;20445;-64
2022/05/22 13:36:57;;;;;;;1.90;0.88;;;28.40;42.20;;;;;;10094276;28;20025;-65
2022/05/22 13:41:50;;;;;;;1.67;1.05;;;28.40;41.20;;;;;;10092614;28;20132;-67
2022/05/22 13:47:02;;;;;;;1.98;0.82;;;28.10;42.20;;;;;;10091647;28;20048;-66
2022/05/22 13:52:35;;;;;;;3.63;1.05;;;27.70;41.60;;;;;;10086723;28;20037;-65
2022/05/22 13:57:29;;;;;;;1.38;0.82;;;27.10;42.10;;;;;;10089773;28;20451;-65
2022/05/22 14:02:27;;;;;;;4.40;1.95;;;26.80;42.00;;;;;;10091299;28;20025;-64
2022/05/22 14:07:30;;;;;;;2.47;1.30;;;26.60;42.00;;;;;;10090995;28;20034;-65
2022/05/22 14:12:31;;;;;;;3.17;1.00;;;26.40;41.50;;;;;;10087124;28;20506;-64
2022/05/22 14:17:34;;;;;;;1.55;0.80;;;26.10;41.50;;;;;;10097594;28;20468;-66
2022/05/22 14:22:25;;;;;;;1.77;0.93;;;26.20;41.00;;;;;;10096157;28;20036;-65
2022/05/22 14:27:42;;;;;;;2.92;1.30;;;26.20;41.10;;;;;;10096911;28;20548;-65
2022/05/22 14:32:33;;;;;;;0.80;0.80;;;26.00;40.80;;;;;;10086888;28;20213;-65
2022/05/22 14:37:23;;;;;;;1.23;0.75;;;26.00;40.90;;;;;;10097777;28;20076;-66
2022/05/22 14:42:20;;;;;;;2.80;1.50;;;25.80;40.60;;;;;;10097886;28;20404;-65
2022/05/22 14:47:19;;;;;;;2.33;0.73;;;25.70;40.50;;;;;;10096356;28;20029;-65
2022/05/22 14:52:31;;;;;;;1.02;0.65;;;25.60;40.40;;;;;;10096093;28;20136;-65
2022/05/22 14:57:22;;;;;;;1.90;1.30;;;25.40;40.00;;;;;;10093646;28;20394;-66
2022/05/22 15:02:32;;;;;;;0.75;0.60;;;25.50;40.40;;;;;;10095889;28;20024;-65
2022/05/22 15:07:28;;;;;;;1.13;0.73;;;25.70;40.30;;;;;;10095968;28;20013;-64
2022/05/22 15:12:25;;;;;;;1.02;0.80;;;25.70;40.60;;;;;;10096039;28;20049;-64
2022/05/22 15:17:32;;;;;;;2.35;1.00;;;25.60;40.80;;;;;;10098810;28;20075;-66
2022/05/22 15:28:09;;;;;;;3.03;1.40;;;25.50;41.90;;;;;;10088646;28;20273;-66
2022/05/22 15:33:21;;;;;;;1.48;1.00;;;25.40;42.40;;;;;;10095586;28;20032;-65
2022/05/22 15:38:25;;;;;;;9.57;1.58;;;25.30;43.10;;;;;;10093720;28;20441;-65
2022/05/22 15:43:28;;;;;;;1.65;0.95;;;25.30;43.90;;;;;;10095530;28;20044;-66
2022/05/22 15:53:28;;;;;;;1.45;1.13;;;26.00;44.00;;;;;;10098363;28;20055;-65
2022/05/22 15:58:18;;;;;;;2.45;1.45;;;26.40;44.20;;;;;;10094029;28;20513;-65
2022/05/22 16:03:14;;;;;;;2.13;1.63;;;26.50;44.60;;;;;;10097133;28;20575;-66
2022/05/22 16:08:05;;;;;;;3.33;1.55;;;26.90;44.60;;;;;;10096690;28;20028;-72
2022/05/22 16:12:56;;;;;;;2.42;1.48;;;27.90;44.40;;;;;;10098095;28;20051;-67
2022/05/22 16:18:06;;;;;;;1.88;1.20;;;29.00;43.80;;;;;;10105651;28;20124;-72
2022/05/22 16:23:00;;;;;;;3.03;1.65;;;29.50;43.40;;;;;;10094774;28;20392;-73
2022/05/22 16:27:50;;;;;;;2.28;1.73;;;29.10;43.90;;;;;;10095532;28;20511;-70
2022/05/22 16:32:42;;;;;;;3.72;1.73;;;28.10;44.70;;;;;;10092750;28;20057;-67
2022/05/22 16:37:35;;;;;;;4.60;1.88;;;27.50;44.90;;;;;;10101656;28;20521;-72
2022/05/22 16:42:27;;;;;;;2.55;1.35;;;27.60;44.40;;;;;;10102645;28;20124;-70
2022/05/22 16:57:49;;;;;;;2.67;1.55;;;26.40;44.50;;;;;;10098887;28;20044;-67
2022/05/22 17:02:39;;;;;;;3.70;1.40;;;26.40;44.20;;;;;;10093303;28;20028;-64
2022/05/22 17:07:31;;;;;;;3.08;1.60;;;26.10;43.90;;;;;;10094117;28;20037;-63
2022/05/22 17:12:21;;;;;;;1.85;1.33;;;25.70;44.20;;;;;;10110146;28;20044;-65
2022/05/22 17:17:14;;;;;;;6.00;3.17;;;25.60;44.20;;;;;;10094744;28;20116;-65
2022/05/22 17:22:13;;;;;;;3.75;1.40;;;25.70;44.10;;;;;;10116258;28;20020;-64
2022/05/22 17:27:05;;;;;;;2.60;1.52;;;25.80;44.10;;;;;;10112927;28;20049;-65
2022/05/22 17:31:56;;;;;;;4.15;1.35;;;25.80;44.30;;;;;;10090068;28;20441;-63
2022/05/22 17:36:47;;;;;;;4.28;1.67;;;25.70;44.50;;;;;;10091438;28;20031;-65
2022/05/22 17:41:38;;;;;;;3.53;1.40;;;25.70;44.90;;;;;;10091023;28;20033;-63
2022/05/22 17:46:28;;;;;;;3.20;1.80;;;26.10;44.60;;;;;;10091317;28;20021;-66
2022/05/22 17:51:24;;;;;;;2.97;1.25;;;26.20;44.70;;;;;;10110715;28;20135;-66
2022/05/22 17:56:14;;;;;;;3.35;1.50;;;25.80;45.10;;;;;;10101933;28;20044;-64
2022/05/22 18:01:05;;;;;;;1.92;1.00;;;25.50;45.40;;;;;;10119543;28;20025;-63
2022/05/22 18:05:56;;;;;;;1.63;1.15;;;25.50;45.40;;;;;;10124299;28;20419;-65
2022/05/22 18:16:02;;;;;;;2.67;1.40;;;25.60;45.40;;;;;;10099430;28;20132;-63
2022/05/22 18:20:53;;;;;;;2.45;1.95;;;25.60;45.50;;;;;;10098077;28;20017;-63
2022/05/22 18:25:46;;;;;;;3.10;1.52;;;25.40;45.70;;;;;;10109488;28;20040;-66
2022/05/22 18:30:40;;;;;;;4.72;1.45;;;25.20;45.90;;;;;;10125525;28;20267;-67
2022/05/22 18:35:31;;;;;;;2.55;1.10;;;24.90;46.20;;;;;;10124695;28;20025;-65
2022/05/22 18:40:22;;;;;;;2.45;1.60;;;24.80;46.30;;;;;;10129604;28;20047;-63
2022/05/22 18:45:16;;;;;;;2.85;1.25;;;24.60;46.50;;;;;;10129073;28;20021;-63
2022/05/22 18:50:07;;;;;;;1.60;1.13;;;24.60;46.60;;;;;;10108819;28;20049;-64
2022/05/22 18:54:59;;;;;;;2.92;1.40;;;24.40;46.90;;;;;;10096602;28;20033;-67
2022/05/22 18:59:50;;;;;;;9.55;1.45;;;24.20;47.20;;;;;;10100118;28;20163;-66
2022/05/22 19:04:42;;;;;;;1.95;1.20;;;24.00;47.40;;;;;;10097749;28;20113;-69
2022/05/22 19:09:33;;;;;;;2.88;1.40;;;23.90;47.60;;;;;;10101244;28;20532;-66
2022/05/22 19:14:26;;;;;;;2.95;1.02;;;23.80;47.90;;;;;;10102282;28;20111;-65
2022/05/22 19:19:17;;;;;;;2.25;1.00;;;23.70;48.30;;;;;;10096321;28;20040;-66
2022/05/22 19:24:08;;;;;;;2.20;1.50;;;23.60;48.50;;;;;;10097732;28;20029;-68
2022/05/22 19:29:02;;;;;;;1.30;1.20;;;23.40;49.00;;;;;;10100756;28;20060;-67
2022/05/22 19:33:54;;;;;;;2.00;1.05;;;23.40;49.10;;;;;;10097584;28;20029;-67
2022/05/22 19:38:46;;;;;;;5.07;1.42;;;23.40;49.40;;;;;;10126797;28;20031;-71
2022/05/22 19:48:46;;;;;;;2.92;1.52;;;23.30;50.00;;;;;;10091206;28;20035;-66
2022/05/22 19:53:36;;;;;;;3.10;1.45;;;23.20;50.10;;;;;;10093423;28;20048;-67
2022/05/22 19:58:35;;;;;;;2.28;1.20;;;23.10;50.40;;;;;;10094783;28;20095;-65
2022/05/22 20:03:26;;;;;;;5.18;1.42;;;23.00;50.90;;;;;;10096058;28;20157;-67
2022/05/22 20:08:34;;;;;;;2.17;1.35;;;23.00;51.40;;;;;;10096579;28;20025;-65
2022/05/22 20:13:26;;;;;;;2.60;1.58;;;22.90;51.70;;;;;;10095619;28;20036;-68
2022/05/22 20:18:18;;;;;;;2.33;1.40;;;22.80;52.00;;;;;;10129455;28;20055;-67
2022/05/22 20:23:11;;;;;;;5.20;1.50;;;22.70;52.30;;;;;;10092175;28;20021;-67
2022/05/22 20:28:04;;;;;;;3.55;1.80;;;22.70;52.30;;;;;;10093588;28;20556;-65
2022/05/22 20:32:54;;;;;;;2.80;1.38;;;22.70;52.60;;;;;;10095828;28;20055;-66
2022/05/22 20:37:45;;;;;;;1.63;1.35;;;22.60;52.80;;;;;;10093806;28;20514;-66
2022/05/22 20:42:38;;;;;;;4.60;1.50;;;22.60;53.00;;;;;;10102365;28;20040;-62
2022/05/22 20:47:29;;;;;;;1.77;1.40;;;22.60;53.10;;;;;;10092565;28;20278;-63
2022/05/22 20:52:19;;;;;;;2.03;1.15;;;22.50;53.40;;;;;;10093745;28;20041;-62
2022/05/22 20:57:13;;;;;;;2.80;1.13;;;22.30;53.80;;;;;;10093181;28;20021;-64
2022/05/22 21:02:11;;;;;;;2.28;1.40;;;22.20;54.30;;;;;;10092185;28;20021;-64
2022/05/22 21:07:05;;;;;;;1.88;1.35;;;22.20;54.40;;;;;;10092294;28;20058;-62
2022/05/22 21:11:56;;;;;;;2.70;1.20;;;22.20;54.30;;;;;;10091579;28;20123;-63
2022/05/22 21:16:47;;;;;;;1.98;1.25;;;22.20;54.40;;;;;;10094013;28;20124;-63
2022/05/22 21:21:39;;;;;;;2.42;1.20;;;22.10;54.80;;;;;;10086223;28;20100;-63
2022/05/22 21:31:39;;;;;;;3.08;2.22;;;21.90;55.20;;;;;;10100015;28;20063;-62
2022/05/22 21:36:30;;;;;;;2.58;1.02;;;21.80;55.40;;;;;;10107561;28;20563;-62
2022/05/22 21:41:22;;;;;;;1.85;1.15;;;21.80;55.60;;;;;;10096965;28;20064;-63
2022/05/22 21:46:13;;;;;;;1.88;1.08;;;22.00;55.70;;;;;;10098537;28;20017;-64
2022/05/22 21:51:03;;;;;;;1.85;1.13;;;22.10;55.50;;;;;;10101242;28;20040;-65
2022/05/22 21:55:58;;;;;;;1.92;1.10;;;22.10;55.70;;;;;;10111016;28;20078;-63
2022/05/22 22:01:03;;;;;;;3.83;1.20;;;22.20;55.60;;;;;;10098878;28;20171;-64
2022/05/22 22:05:53;;;;;;;1.40;0.98;;;22.10;56.60;;;;;;10099406;28;20111;-63
2022/05/22 22:10:44;;;;;;;1.17;0.85;;;22.10;56.00;;;;;;10098828;28;20115;-63
2022/05/22 22:15:35;;;;;;;3.22;1.00;;;22.00;56.20;;;;;;10101177;28;20155;-64
2022/05/22 22:20:25;;;;;;;4.65;1.42;;;21.90;56.50;;;;;;10098613;28;20515;-64
2022/05/22 22:25:16;;;;;;;1.38;1.02;;;21.90;56.70;;;;;;10098466;28;20074;-64
2022/05/22 22:30:08;;;;;;;1.35;1.08;;;21.80;56.90;;;;;;10098116;28;20452;-63
2022/05/22 22:34:58;;;;;;;2.83;1.40;;;21.80;57.10;;;;;;10098297;28;20306;-65
2022/05/22 22:39:49;;;;;;;1.55;1.10;;;21.70;57.10;;;;;;10097620;28;20418;-65
2022/05/22 22:44:42;;;;;;;1.85;1.25;;;21.70;57.20;;;;;;10096832;28;20471;-64
2022/05/22 22:49:33;;;;;;;1.45;1.15;;;21.80;57.00;;;;;;10097844;28;20041;-63
2022/05/22 22:59:35;;;;;;;1.92;1.52;;;21.50;57.60;;;;;;10092834;28;20075;-64
2022/05/22 23:04:26;;;;;;;1.83;1.00;;;21.40;57.70;;;;;;10093306;28;20048;-65
2022/05/22 23:09:19;;;;;;;3.15;1.40;;;21.30;58.00;;;;;;10098706;28;20087;-65
2022/05/22 23:14:12;;;;;;;2.30;1.77;;;21.20;58.30;;;;;;10096783;28;20525;-64
2022/05/22 23:19:03;;;;;;;2.03;1.33;;;21.20;58.60;;;;;;10099443;28;20029;-64
2022/05/22 23:23:53;;;;;;;3.45;1.48;;;21.10;58.70;;;;;;10127931;28;20037;-64
2022/05/22 23:28:46;;;;;;;1.85;1.23;;;21.10;58.80;;;;;;10096071;28;20411;-64
2022/05/22 23:33:37;;;;;;;3.35;1.38;;;21.10;59.10;;;;;;10095716;28;20036;-65
2022/05/22 23:39:14;;;;;;;1.67;1.20;;;21.10;59.20;;;;;;10095495;28;20021;-65
2022/05/22 23:43:41;;;;;;;1.58;0.93;;;21.20;59.30;;;;;;10097924;28;20487;-65
2022/05/22 23:48:32;;;;;;;4.70;1.33;;;21.10;59.50;;;;;;10095193;28;20031;-65
2022/05/22 23:53:24;;;;;;;2.08;1.40;;;21.10;59.60;;;;;;10095144;28;20043;-64
2022/05/22 23:58:15;;;;;;;2.30;1.30;;;21.10;59.60;;;;;;10099455;28;20025;-64
